createdAt,value
2023-01-20T00:00:01.300Z,16.00
2023-01-20T00:05:00.598Z,20.20
2023-01-20T00:10:01.072Z,20.30
2023-01-20T00:15:00.581Z,23.80
2023-01-20T00:20:01.088Z,20.30
2023-01-20T00:25:00.604Z,18.40
2023-01-20T00:30:00.553Z,15.50
2023-01-20T00:35:00.579Z,14.30
2023-01-20T00:40:00.573Z,11.20
2023-01-20T00:45:00.574Z,13.90
2023-01-20T00:50:00.735Z,12.90
2023-01-20T00:55:00.589Z,15.30
2023-01-20T01:00:01.080Z,15.30
2023-01-20T01:05:00.583Z,16.80
2023-01-20T01:10:00.635Z,17.70
2023-01-20T01:15:00.850Z,17.70
2023-01-20T01:20:00.742Z,19.50
2023-01-20T01:25:00.567Z,20.70
2023-01-20T01:30:00.631Z,21.10
2023-01-20T01:35:00.635Z,22.90
2023-01-20T01:40:00.581Z,21.40
2023-01-20T01:45:10.805Z,24.00
2023-01-20T01:50:00.944Z,28.90
2023-01-20T01:55:02.122Z,28.90
2023-01-20T02:00:03.359Z,33.10
2023-01-20T02:05:01.565Z,33.20
2023-01-20T02:10:00.990Z,36.20
2023-01-20T02:15:02.721Z,34.10
2023-01-20T02:20:10.533Z,39.70
2023-01-20T02:25:14.125Z,42.40
2023-01-20T02:30:20.476Z,40.60
2023-01-20T02:35:13.830Z,47.30
2023-01-20T02:40:15.333Z,44.00
2023-01-20T02:45:11.360Z,50.20
2023-01-20T02:50:12.938Z,48.60
2023-01-20T02:55:05.391Z,39.30
2023-01-20T03:00:11.429Z,50.20
2023-01-20T03:05:06.174Z,40.70
2023-01-20T03:10:05.408Z,43.30
2023-01-20T03:15:01.294Z,51.30
2023-01-20T03:20:00.935Z,48.10
2023-01-20T03:25:02.072Z,42.30
2023-01-20T03:30:00.755Z,48.40
2023-01-20T03:35:00.591Z,45.60
2023-01-20T03:40:00.763Z,37.80
2023-01-20T03:45:16.209Z,40.50
2023-01-20T03:50:14.962Z,47.40
2023-01-20T03:55:14.536Z,39.20
2023-01-20T04:00:04.167Z,48.20
2023-01-20T04:05:02.769Z,54.50
2023-01-20T04:10:10.143Z,39.60
2023-01-20T04:15:00.960Z,49.00
2023-01-20T04:20:06.132Z,42.90
2023-01-20T04:25:12.880Z,43.30
2023-01-20T04:30:00.570Z,47.00
2023-01-20T04:35:00.626Z,51.50
2023-01-20T04:40:00.620Z,43.20
2023-01-20T04:45:00.634Z,47.00
2023-01-20T04:50:00.648Z,42.60
2023-01-20T04:55:00.760Z,44.90
2023-01-20T05:00:01.375Z,53.00
2023-01-20T05:05:00.558Z,53.00
2023-01-20T05:10:00.643Z,53.10
2023-01-20T05:15:00.621Z,54.80
2023-01-20T05:20:00.589Z,53.10
2023-01-20T05:25:00.592Z,56.00
2023-01-20T05:30:00.580Z,47.10
2023-01-20T05:35:00.576Z,45.00
2023-01-20T05:40:00.637Z,55.40
2023-01-20T05:45:00.648Z,51.10
2023-01-20T05:50:00.594Z,51.80
2023-01-20T05:55:00.571Z,53.00
2023-01-20T06:00:01.368Z,46.40
2023-01-20T06:05:00.629Z,48.80
2023-01-20T06:10:00.800Z,48.70
2023-01-20T06:15:00.861Z,42.20
2023-01-20T06:20:00.859Z,42.20
2023-01-20T06:25:00.553Z,43.80
2023-01-20T06:30:00.599Z,41.00
2023-01-20T06:35:00.611Z,44.20
2023-01-20T06:40:00.566Z,39.20
2023-01-20T06:45:00.611Z,40.50
2023-01-20T06:50:00.633Z,38.30
2023-01-20T06:55:00.554Z,41.80
2023-01-20T07:00:01.395Z,48.60
2023-01-20T07:05:00.717Z,40.20
2023-01-20T07:10:02.274Z,46.10
2023-01-20T07:15:00.590Z,37.60
2023-01-20T07:20:00.566Z,45.90
2023-01-20T07:25:00.579Z,38.70
2023-01-20T07:30:00.605Z,42.10
2023-01-20T07:35:00.542Z,45.30
2023-01-20T07:40:00.626Z,47.00
2023-01-20T07:45:00.583Z,42.30
2023-01-20T07:50:00.620Z,44.80
2023-01-20T07:55:00.581Z,40.20
2023-01-20T08:00:01.383Z,38.80
2023-01-20T08:05:00.688Z,41.40
2023-01-20T08:10:00.646Z,36.10
2023-01-20T08:15:00.573Z,39.10
2023-01-20T08:20:00.642Z,39.90
2023-01-20T08:25:00.580Z,39.60
2023-01-20T08:30:00.662Z,32.60
2023-01-20T08:35:00.604Z,30.30
2023-01-20T08:40:00.622Z,41.10
2023-01-20T08:45:00.645Z,40.40
2023-01-20T08:50:00.690Z,40.70
2023-01-20T08:55:00.931Z,37.40
2023-01-20T09:00:01.491Z,33.10
2023-01-20T09:05:00.686Z,37.50
2023-01-20T09:10:00.877Z,35.60
2023-01-20T09:15:01.277Z,33.30
2023-01-20T09:20:00.640Z,35.10
2023-01-20T09:25:00.571Z,28.00
2023-01-20T09:30:01.334Z,27.70
2023-01-20T09:35:00.668Z,21.40
2023-01-20T09:40:00.635Z,20.40
2023-01-20T09:45:12.504Z,26.20
2023-01-20T09:50:14.233Z,24.20
2023-01-20T09:55:09.025Z,27.20
2023-01-20T10:00:14.870Z,23.00
2023-01-20T10:05:09.931Z,21.40
2023-01-20T10:10:15.294Z,22.90
2023-01-20T10:15:09.217Z,21.10
2023-01-20T10:20:06.406Z,21.40
2023-01-20T10:25:08.360Z,21.00
2023-01-20T10:30:10.189Z,23.90
2023-01-20T10:35:09.159Z,23.80
2023-01-20T10:40:13.812Z,23.20
2023-01-20T10:45:00.752Z,27.00
2023-01-20T10:50:00.574Z,20.60
2023-01-20T10:55:17.456Z,22.50
2023-01-20T11:00:05.871Z,23.60
2023-01-20T11:05:15.269Z,25.30
2023-01-20T11:10:14.299Z,24.70
2023-01-20T11:15:00.953Z,21.90
2023-01-20T11:20:04.986Z,23.60
2023-01-20T11:25:03.299Z,21.90
2023-01-20T11:30:05.558Z,23.20
2023-01-20T11:35:12.034Z,23.10
2023-01-20T11:40:12.871Z,21.90
2023-01-20T11:45:20.873Z,24.80
2023-01-20T11:50:03.817Z,23.40
2023-01-20T11:55:11.771Z,23.90
2023-01-20T12:00:01.986Z,23.60
2023-01-20T12:05:03.824Z,23.80
2023-01-20T12:10:12.162Z,24.40
2023-01-20T12:15:04.586Z,23.60
2023-01-20T12:20:07.874Z,21.20
2023-01-20T12:25:20.120Z,19.30
2023-01-20T12:30:09.812Z,22.40
2023-01-20T12:35:00.751Z,20.50
2023-01-20T12:40:14.268Z,15.90
2023-01-20T12:45:20.474Z,16.90
2023-01-20T12:50:15.330Z,15.00
2023-01-20T12:55:14.586Z,16.20
2023-01-20T13:00:20.479Z,17.50
2023-01-20T13:05:16.045Z,16.20
2023-01-20T13:10:11.553Z,14.10
2023-01-20T13:15:12.928Z,16.30
2023-01-20T13:20:03.077Z,15.50
2023-01-20T13:25:00.918Z,17.70
2023-01-20T13:30:03.894Z,17.10
2023-01-20T13:35:18.821Z,17.10
2023-01-20T13:40:01.349Z,16.20
2023-01-20T13:45:11.329Z,17.40
2023-01-20T13:50:20.479Z,17.00
2023-01-20T13:55:00.580Z,16.70
2023-01-20T14:00:01.958Z,16.90
2023-01-20T14:05:00.593Z,17.00
2023-01-20T14:10:00.941Z,16.40
2023-01-20T14:15:00.667Z,15.10
2023-01-20T14:20:00.611Z,18.20
2023-01-20T14:25:00.783Z,17.10
2023-01-20T14:30:13.226Z,15.90
2023-01-20T14:35:03.054Z,14.60
2023-01-20T14:40:07.274Z,16.40
2023-01-20T14:45:00.605Z,15.00
2023-01-20T14:50:01.188Z,14.80
2023-01-20T14:55:00.600Z,14.50
2023-01-20T15:00:18.384Z,14.40
2023-01-20T15:05:01.196Z,15.40
2023-01-20T15:10:06.496Z,14.40
2023-01-20T15:15:10.747Z,14.40
2023-01-20T15:20:00.575Z,17.30
2023-01-20T15:25:10.863Z,17.70
2023-01-20T15:30:13.014Z,14.40
2023-01-20T15:35:00.563Z,14.20
2023-01-20T15:40:00.637Z,13.20
2023-01-20T15:45:00.562Z,13.70
2023-01-20T15:50:00.577Z,13.50
2023-01-20T15:55:00.559Z,11.90
2023-01-20T16:00:02.462Z,12.50
2023-01-20T16:05:00.577Z,11.90
2023-01-20T16:10:01.699Z,9.10
2023-01-20T16:15:00.564Z,9.10
2023-01-20T16:20:00.558Z,9.20
2023-01-20T16:25:00.576Z,9.20
2023-01-20T16:30:00.553Z,11.60
2023-01-20T16:35:00.574Z,8.40
2023-01-20T16:40:00.626Z,8.20
2023-01-20T16:45:00.559Z,9.40
2023-01-20T16:50:00.678Z,10.40
2023-01-20T16:55:00.549Z,11.20
2023-01-20T17:00:01.473Z,10.70
2023-01-20T17:05:00.574Z,9.70
2023-01-20T17:10:00.688Z,11.20
2023-01-20T17:15:00.582Z,12.10
2023-01-20T17:20:00.599Z,11.00
2023-01-20T17:25:00.558Z,13.00
2023-01-20T17:30:00.574Z,14.70
2023-01-20T17:35:00.843Z,18.50
2023-01-20T17:40:00.609Z,17.30
2023-01-20T17:45:00.611Z,16.10
2023-01-20T17:50:00.644Z,18.10
2023-01-20T17:55:00.570Z,15.60
2023-01-20T18:00:02.978Z,23.40
2023-01-20T18:05:00.638Z,19.90
2023-01-20T18:10:00.599Z,24.50
2023-01-20T18:15:00.556Z,24.00
2023-01-20T18:20:00.625Z,23.00
2023-01-20T18:25:00.686Z,27.10
2023-01-20T18:30:00.576Z,27.00
2023-01-20T18:35:00.612Z,25.90
2023-01-20T18:40:00.661Z,28.60
2023-01-20T18:45:01.615Z,27.00
2023-01-20T18:50:00.579Z,30.10
2023-01-20T18:55:00.563Z,27.50
2023-01-20T19:00:01.300Z,29.60
2023-01-20T19:05:00.578Z,34.90
2023-01-20T19:10:00.557Z,28.60
2023-01-20T19:15:00.573Z,32.80
2023-01-20T19:20:01.029Z,27.80
2023-01-20T19:25:00.608Z,28.40
2023-01-20T19:30:00.619Z,31.70
2023-01-20T19:35:00.582Z,31.00
2023-01-20T19:40:00.566Z,37.20
2023-01-20T19:45:00.595Z,34.40
2023-01-20T19:50:00.759Z,38.50
2023-01-20T19:55:00.575Z,36.60
2023-01-20T20:00:01.428Z,34.00
2023-01-20T20:05:00.597Z,36.40
2023-01-20T20:10:00.566Z,36.60
2023-01-20T20:15:00.579Z,36.10
2023-01-20T20:20:00.573Z,41.10
2023-01-20T20:25:00.651Z,38.50
2023-01-20T20:30:00.554Z,35.30
2023-01-20T20:35:00.575Z,33.70
2023-01-20T20:40:00.555Z,35.20
2023-01-20T20:45:00.613Z,32.20
2023-01-20T20:50:00.561Z,37.20
2023-01-20T20:55:00.571Z,34.50
2023-01-20T21:00:01.100Z,38.40
2023-01-20T21:05:00.599Z,36.80
2023-01-20T21:10:00.592Z,36.10
2023-01-20T21:15:00.564Z,35.80
2023-01-20T21:20:00.674Z,39.40
2023-01-20T21:25:00.633Z,34.10
2023-01-20T21:30:00.561Z,37.40
2023-01-20T21:35:00.598Z,36.00
2023-01-20T21:40:00.583Z,35.20
2023-01-20T21:45:00.601Z,35.00
2023-01-20T21:50:00.592Z,33.70
2023-01-20T21:55:01.747Z,35.20
2023-01-20T22:00:04.289Z,37.70
2023-01-20T22:05:00.645Z,36.20
2023-01-20T22:10:00.575Z,32.70
2023-01-20T22:15:01.637Z,36.10
2023-01-20T22:20:00.578Z,37.30
2023-01-20T22:25:00.565Z,31.30
2023-01-20T22:30:00.569Z,35.40
2023-01-20T22:35:00.568Z,33.70
2023-01-20T22:40:00.561Z,33.70
2023-01-20T22:45:00.558Z,37.90
2023-01-20T22:50:00.580Z,33.20
2023-01-20T22:55:00.569Z,35.60
2023-01-20T23:00:01.286Z,31.60
2023-01-20T23:05:00.561Z,33.70
2023-01-20T23:10:00.549Z,37.50
2023-01-20T23:15:00.629Z,38.60
2023-01-20T23:20:00.626Z,42.60
2023-01-20T23:25:00.584Z,38.40
2023-01-20T23:30:00.619Z,41.40
2023-01-20T23:35:00.611Z,43.30
2023-01-20T23:40:00.573Z,41.10
2023-01-20T23:45:00.610Z,41.90
2023-01-20T23:50:00.795Z,61.80
2023-01-20T23:55:00.566Z,36.60
